Time;durP1;ratioP1;P1;durP2;ratioP2;P2;SDS_P1;SDS_P2;PMS_P1;PMS_P2;Temp;Humidity;BMP_temperature;BMP_pressure;BME280_temperature;BME280_humidity;BME280_pressure;Samples;Min_cycle;Max_cycle;Signal;HPM_P1;HPM_P2
2022/04/04 00:02:05;;;;;;;;;;;;;;;17.82;44.81;100968.03;4981724;28;934;-57
2022/04/04 00:04:30;;;;;;;;;;;;;;;17.88;44.84;100959.50;4999396;28;870;-56
2022/04/04 00:06:56;;;;;;;;;;;;;;;17.89;44.88;100971.31;5017529;28;854;-57
2022/04/04 00:09:21;;;;;;;;;;;;;;;17.85;45.03;100967.47;5011871;28;834;-56
2022/04/04 00:11:47;;;;;;;;;;;;;;;17.84;44.92;100969.41;4999719;28;822;-56
2022/04/04 00:14:13;;;;;;;;;;;;;;;17.88;44.90;100976.00;4999534;28;1902;-56
2022/04/04 00:16:38;;;;;;;;;;;;;;;17.83;44.68;100967.75;4999517;28;805;-56
2022/04/04 00:19:05;;;;;;;;;;;;;;;17.87;44.86;100979.84;5012143;28;948;-56
2022/04/04 00:21:32;;;;;;;;;;;;;;;17.88;44.76;100973.25;4996758;28;847;-57
2022/04/04 00:23:57;;;;;;;;;;;;;;;17.94;44.75;100972.16;5000039;28;929;-57
2022/04/04 00:26:23;;;;;;;;;;;;;;;17.92;45.00;100973.53;5015251;28;862;-56
2022/04/04 00:28:49;;;;;;;;;;;;;;;17.97;44.79;100983.75;5018011;28;827;-56
2022/04/04 00:31:15;;;;;;;;;;;;;;;17.96;44.84;100982.88;5012603;28;846;-57
2022/04/04 00:33:40;;;;;;;;;;;;;;;17.99;44.68;100992.53;5018217;28;1911;-56
2022/04/04 00:36:06;;;;;;;;;;;;;;;17.96;44.66;100993.91;5017973;28;817;-56
2022/04/04 00:38:32;;;;;;;;;;;;;;;17.95;44.65;101003.28;5017445;28;1091;-56
2022/04/04 00:40:57;;;;;;;;;;;;;;;17.92;44.90;101001.91;4999195;28;775;-56
2022/04/04 00:43:23;;;;;;;;;;;;;;;17.90;44.57;101014.25;4998851;28;1466;-57
2022/04/04 00:45:49;;;;;;;;;;;;;;;17.84;44.72;101029.09;5013247;28;747;-56
2022/04/04 00:48:14;;;;;;;;;;;;;;;17.83;44.69;101022.78;5017665;28;829;-56
2022/04/04 00:50:40;;;;;;;;;;;;;;;17.75;44.61;101015.06;5017661;28;819;-57
2022/04/04 00:53:07;;;;;;;;;;;;;;;17.85;44.41;101034.34;5017869;28;1969;-57
2022/04/04 00:55:32;;;;;;;;;;;;;;;17.78;44.42;101026.34;5008840;28;992;-57
2022/04/04 00:57:58;;;;;;;;;;;;;;;17.83;44.50;101024.72;4998960;28;783;-57
2022/04/04 01:00:24;;;;;;;;;;;;;;;17.85;44.59;101025.25;4974532;28;1040;-57
2022/04/04 01:02:49;;;;;;;;;;;;;;;17.78;44.42;101025.50;4998765;28;848;-57
2022/04/04 01:05:15;;;;;;;;;;;;;;;17.77;44.44;101018.38;4998392;28;897;-57
2022/04/04 01:07:41;;;;;;;;;;;;;;;17.73;44.72;101023.59;4999015;28;815;-56
2022/04/04 01:10:08;;;;;;;;;;;;;;;17.78;44.30;101026.34;5010084;28;1156;-57
2022/04/04 01:12:34;;;;;;;;;;;;;;;17.80;44.35;101026.09;5017501;28;745;-56
2022/04/04 01:15:00;;;;;;;;;;;;;;;17.75;44.43;101018.66;5017001;28;1977;-57
2022/04/04 01:17:27;;;;;;;;;;;;;;;17.77;44.21;101013.69;5016764;28;890;-57
2022/04/04 01:19:52;;;;;;;;;;;;;;;17.83;44.30;101021.97;5016962;28;763;-57
2022/04/04 01:22:18;;;;;;;;;;;;;;;17.87;44.49;101034.06;5012400;28;898;-58
2022/04/04 01:24:43;;;;;;;;;;;;;;;17.89;44.33;101037.34;5010603;28;854;-57
2022/04/04 01:27:09;;;;;;;;;;;;;;;17.99;44.48;101039.28;5000436;28;790;-57
2022/04/04 01:29:34;;;;;;;;;;;;;;;17.99;44.27;101036.53;4998363;28;823;-57
2022/04/04 01:32:00;;;;;;;;;;;;;;;17.94;44.55;101038.19;4997877;28;859;-58
2022/04/04 01:34:25;;;;;;;;;;;;;;;17.88;44.49;101043.94;5000326;28;1894;-57
2022/04/04 01:36:51;;;;;;;;;;;;;;;17.85;44.55;101047.25;5016421;28;778;-57
2022/04/04 01:39:16;;;;;;;;;;;;;;;17.73;44.65;101045.59;5010155;28;1151;-56
2022/04/04 01:41:42;;;;;;;;;;;;;;;17.69;44.23;101039.00;4997902;28;881;-57
2022/04/04 01:44:07;;;;;;;;;;;;;;;17.67;44.47;101041.22;5012412;28;740;-57
2022/04/04 01:46:33;;;;;;;;;;;;;;;17.73;44.10;101056.59;5011779;28;834;-56
2022/04/04 01:48:59;;;;;;;;;;;;;;;17.61;44.05;101047.78;5016352;28;807;-56
2022/04/04 01:51:25;;;;;;;;;;;;;;;17.58;44.35;101043.66;5016638;28;782;-56
2022/04/04 01:53:50;;;;;;;;;;;;;;;17.60;44.11;101046.16;5014046;28;1898;-56
2022/04/04 01:56:16;;;;;;;;;;;;;;;17.54;43.91;101041.75;5016677;28;866;-56
2022/04/04 01:58:42;;;;;;;;;;;;;;;17.57;44.08;101042.03;5015555;28;811;-57
2022/04/04 02:01:10;;;;;;;;;;;;;;;17.56;43.92;101045.06;5016820;28;758;-58
2022/04/04 02:03:36;;;;;;;;;;;;;;;17.50;43.77;101051.63;5016517;28;1173;-57
2022/04/04 02:06:02;;;;;;;;;;;;;;;17.45;43.79;101056.03;5016615;28;1423;-58
2022/04/04 02:08:28;;;;;;;;;;;;;;;17.42;43.70;101061.25;5016100;28;727;-57
2022/04/04 02:10:53;;;;;;;;;;;;;;;17.44;43.79;101045.31;4997575;28;960;-57
2022/04/04 02:13:18;;;;;;;;;;;;;;;17.45;43.92;101057.97;5008972;28;1969;-57
2022/04/04 02:15:44;;;;;;;;;;;;;;;17.48;43.93;101051.91;5016046;28;873;-57
2022/04/04 02:18:10;;;;;;;;;;;;;;;17.43;43.54;101046.41;5016002;28;939;-57
2022/04/04 02:20:36;;;;;;;;;;;;;;;17.42;43.80;101059.31;5016564;28;808;-57
2022/04/04 02:23:01;;;;;;;;;;;;;;;17.43;43.80;101055.50;5016068;28;838;-56
2022/04/04 02:25:28;;;;;;;;;;;;;;;17.47;43.81;101046.69;5000002;28;857;-56
2022/04/04 02:27:54;;;;;;;;;;;;;;;17.47;43.91;101046.69;4997440;28;810;-57
2022/04/04 02:30:19;;;;;;;;;;;;;;;17.49;43.90;101050.81;4997028;28;783;-57
2022/04/04 02:32:45;;;;;;;;;;;;;;;17.49;43.90;101052.72;4996938;28;1037;-57
2022/04/04 02:35:10;;;;;;;;;;;;;;;17.51;43.84;101053.28;4997145;28;1993;-57
2022/04/04 02:37:36;;;;;;;;;;;;;;;17.48;44.01;101053.84;4999326;28;1170;-57
2022/04/04 02:40:01;;;;;;;;;;;;;;;17.43;44.10;101055.50;5012557;28;893;-57
2022/04/04 02:42:27;;;;;;;;;;;;;;;17.44;44.07;101062.63;5015927;28;866;-57
2022/04/04 02:44:54;;;;;;;;;;;;;;;17.47;44.15;101063.19;5001452;28;899;-57
2022/04/04 02:47:19;;;;;;;;;;;;;;;17.47;44.35;101066.75;4996087;28;882;-56
2022/04/04 02:49:45;;;;;;;;;;;;;;;17.43;44.06;101058.25;4997520;28;885;-56
2022/04/04 02:52:11;;;;;;;;;;;;;;;17.47;44.13;101063.19;5015691;28;830;-57
2022/04/04 02:54:36;;;;;;;;;;;;;;;17.45;44.43;101066.22;5013865;28;1984;-56
2022/04/04 02:57:02;;;;;;;;;;;;;;;17.43;44.29;101066.47;5015732;28;767;-56
2022/04/04 02:59:27;;;;;;;;;;;;;;;17.44;44.23;101065.38;5015465;28;974;-56
2022/04/04 03:01:52;;;;;;;;;;;;;;;17.48;44.13;101068.41;5015422;28;827;-56
2022/04/04 03:04:18;;;;;;;;;;;;;;;17.39;44.24;101081.88;5012099;28;948;-58
2022/04/04 03:06:43;;;;;;;;;;;;;;;17.39;44.29;101087.38;5015581;28;881;-58
2022/04/04 03:09:09;;;;;;;;;;;;;;;17.45;44.21;101096.44;5009564;28;917;-58
2022/04/04 03:11:34;;;;;;;;;;;;;;;17.45;44.07;101104.69;4997009;28;782;-58
2022/04/04 03:14:00;;;;;;;;;;;;;;;17.40;44.16;101105.53;4996641;28;1910;-58
2022/04/04 03:16:25;;;;;;;;;;;;;;;17.35;44.18;101100.00;4995866;28;833;-58
2022/04/04 03:18:54;;;;;;;;;;;;;;;17.37;44.19;101099.72;4996727;28;850;-57
2022/04/04 03:21:19;;;;;;;;;;;;;;;17.29;43.87;101103.81;4996815;28;849;-57
2022/04/04 03:23:45;;;;;;;;;;;;;;;17.30;43.96;101118.41;4992684;28;1109;-57
2022/04/04 03:26:10;;;;;;;;;;;;;;;17.22;43.80;101108.75;4996114;28;1263;-58
2022/04/04 03:28:36;;;;;;;;;;;;;;;17.21;43.55;101115.34;4995759;28;1327;-58
2022/04/04 03:31:04;;;;;;;;;;;;;;;17.15;44.03;101111.72;4995620;28;1370;-58
2022/04/04 03:33:30;;;;;;;;;;;;;;;17.25;43.79;101116.44;4995980;28;1977;-58
2022/04/04 03:35:55;;;;;;;;;;;;;;;17.21;44.02;101126.34;4998265;28;1330;-58
2022/04/04 03:38:21;;;;;;;;;;;;;;;17.19;43.66;101134.03;4996005;28;1405;-58
2022/04/04 03:40:46;;;;;;;;;;;;;;;17.10;43.64;101136.47;5008865;28;1017;-58
2022/04/04 03:43:12;;;;;;;;;;;;;;;17.09;43.37;101140.31;5011596;28;858;-57
2022/04/04 03:45:37;;;;;;;;;;;;;;;17.02;43.55;101146.03;5015026;28;697;-58
2022/04/04 03:48:03;;;;;;;;;;;;;;;17.01;43.44;101155.41;5015547;28;909;-57
2022/04/04 03:50:28;;;;;;;;;;;;;;;16.98;43.38;101158.66;5015218;28;783;-57
2022/04/04 03:52:55;;;;;;;;;;;;;;;16.92;43.22;101156.97;5015314;28;843;-58
2022/04/04 03:55:22;;;;;;;;;;;;;;;16.92;43.58;101152.31;5005572;28;1914;-59
2022/04/04 03:57:48;;;;;;;;;;;;;;;17.03;43.54;101166.94;5015487;28;787;-56
2022/04/04 04:00:14;;;;;;;;;;;;;;;17.03;43.77;101157.88;5018334;28;803;-56
2022/04/04 04:02:39;;;;;;;;;;;;;;;17.01;43.70;101162.78;5018685;28;830;-57
2022/04/04 04:05:05;;;;;;;;;;;;;;;17.09;43.96;101165.84;5018284;28;866;-56
2022/04/04 04:07:30;;;;;;;;;;;;;;;17.14;44.04;101173.31;5005504;28;831;-57
2022/04/04 04:09:56;;;;;;;;;;;;;;;17.18;44.02;101168.09;4999190;28;892;-56
2022/04/04 04:12:21;;;;;;;;;;;;;;;17.16;44.15;101181.28;5018466;28;866;-57
2022/04/04 04:14:51;;;;;;;;;;;;;;;17.21;44.50;101173.06;5018389;28;1980;-56
2022/04/04 04:17:18;;;;;;;;;;;;;;;17.22;44.17;101185.69;5018458;28;855;-57
2022/04/04 04:22:28;;;;;;;;;;;;;;;17.24;44.09;101180.78;5018088;28;840;-57
2022/04/04 04:24:54;;;;;;;;;;;;;;;17.21;44.33;101184.88;5007252;28;904;-57
2022/04/04 04:27:19;;;;;;;;;;;;;;;17.24;44.17;101184.34;4999785;28;829;-57
2022/04/04 04:29:45;;;;;;;;;;;;;;;17.25;44.14;101187.91;4999189;28;818;-58
2022/04/04 04:32:12;;;;;;;;;;;;;;;17.20;44.56;101180.47;4999169;28;837;-58
2022/04/04 04:34:38;;;;;;;;;;;;;;;17.22;44.17;101180.19;5018334;28;1914;-59
2022/04/04 04:37:04;;;;;;;;;;;;;;;17.26;44.20;101186.81;5017791;28;979;-58
2022/04/04 04:39:30;;;;;;;;;;;;;;;17.31;44.11;101186.84;4998644;28;1149;-57
2022/04/04 04:41:55;;;;;;;;;;;;;;;17.31;44.14;101197.84;5018222;28;843;-58
2022/04/04 04:44:21;;;;;;;;;;;;;;;17.28;44.29;101207.44;5015599;28;968;-57
2022/04/04 04:46:48;;;;;;;;;;;;;;;17.27;44.30;101202.22;5017631;28;934;-60
2022/04/04 04:49:14;;;;;;;;;;;;;;;17.25;44.13;101213.47;5017596;28;846;-61
2022/04/04 04:51:40;;;;;;;;;;;;;;;17.22;44.21;101207.69;5017324;28;838;-60
2022/04/04 04:54:06;;;;;;;;;;;;;;;17.22;44.42;101213.16;5012611;28;1906;-61
2022/04/04 04:56:31;;;;;;;;;;;;;;;17.18;44.24;101218.41;5016358;28;753;-63
2022/04/04 04:58:57;;;;;;;;;;;;;;;17.15;44.44;101215.34;5000652;28;865;-59
2022/04/04 05:01:22;;;;;;;;;;;;;;;17.15;44.38;101221.66;4999207;28;818;-58
2022/04/04 05:03:50;;;;;;;;;;;;;;;17.13;44.27;101220.28;4998801;28;775;-57
2022/04/04 05:06:15;;;;;;;;;;;;;;;17.20;44.25;101231.88;4998626;28;858;-58
2022/04/04 05:08:41;;;;;;;;;;;;;;;17.16;44.24;101236.25;4998171;28;838;-58
2022/04/04 05:11:06;;;;;;;;;;;;;;;17.12;43.84;101232.38;5006844;28;827;-59
2022/04/04 05:13:32;;;;;;;;;;;;;;;17.12;44.08;101237.88;5017388;28;1898;-59
2022/04/04 05:15:58;;;;;;;;;;;;;;;17.11;43.85;101242.53;5017028;28;684;-59
2022/04/04 05:18:24;;;;;;;;;;;;;;;17.10;44.01;101247.19;5017469;28;884;-59
2022/04/04 05:20:49;;;;;;;;;;;;;;;17.09;43.78;101251.03;5017169;28;837;-58
2022/04/04 05:23:15;;;;;;;;;;;;;;;17.10;43.89;101247.19;5011411;28;806;-56
2022/04/04 05:25:40;;;;;;;;;;;;;;;17.15;43.84;101245.56;5000346;28;967;-58
2022/04/04 05:28:07;;;;;;;;;;;;;;;17.19;44.14;101246.69;4997945;28;795;-56
2022/04/04 05:30:34;;;;;;;;;;;;;;;17.21;44.30;101247.28;4998216;28;870;-56
2022/04/04 05:32:59;;;;;;;;;;;;;;;17.31;43.97;101247.31;4998128;28;881;-56
2022/04/04 05:35:25;;;;;;;;;;;;;;;17.26;43.99;101248.13;4998455;28;1997;-56
2022/04/04 05:37:54;;;;;;;;;;;;;;;17.35;44.09;101245.69;5016563;28;1010;-56
2022/04/04 05:40:20;;;;;;;;;;;;;;;17.34;43.96;101270.69;5002383;28;1004;-58
2022/04/04 05:42:46;;;;;;;;;;;;;;;17.32;43.97;101259.97;4980360;28;843;-58
2022/04/04 05:45:12;;;;;;;;;;;;;;;17.31;44.02;101261.06;4997561;28;854;-58
2022/04/04 05:47:37;;;;;;;;;;;;;;;17.32;44.02;101268.22;4997939;28;843;-57
2022/04/04 05:50:03;;;;;;;;;;;;;;;17.28;44.20;101287.16;5009935;28;910;-58
2022/04/04 05:52:28;;;;;;;;;;;;;;;17.33;44.14;101289.09;5016037;28;787;-57
2022/04/04 05:54:54;;;;;;;;;;;;;;;17.31;44.43;101287.72;5005327;28;1910;-57
2022/04/04 05:57:26;;;;;;;;;;;;;;;17.32;44.14;101298.44;4997430;28;934;-58
2022/04/04 05:59:52;;;;;;;;;;;;;;;17.33;44.10;101315.75;5016511;28;909;-58
2022/04/04 06:02:19;;;;;;;;;;;;;;;17.28;44.43;101311.06;5014927;28;789;-57
2022/04/04 06:04:45;;;;;;;;;;;;;;;17.24;44.19;101312.69;5016287;28;863;-57
2022/04/04 06:07:10;;;;;;;;;;;;;;;17.18;44.11;101308.22;5016014;28;897;-59
2022/04/04 06:09:36;;;;;;;;;;;;;;;17.18;44.15;101310.97;5012853;28;967;-57
2022/04/04 06:12:01;;;;;;;;;;;;;;;17.19;44.31;101320.88;5016378;28;827;-58
2022/04/04 06:14:27;;;;;;;;;;;;;;;17.22;44.21;101331.34;5000877;28;1967;-57
2022/04/04 06:16:52;;;;;;;;;;;;;;;17.17;44.02;101323.09;4986943;28;1155;-56
2022/04/04 06:19:17;;;;;;;;;;;;;;;17.03;43.98;101318.03;4994022;28;1184;-57
2022/04/04 06:21:43;;;;;;;;;;;;;;;17.09;44.09;101332.63;4995016;28;1038;-57
2022/04/04 06:24:08;;;;;;;;;;;;;;;17.05;43.79;101332.31;5000126;28;1287;-58
2022/04/04 06:26:34;;;;;;;;;;;;;;;17.04;43.79;101330.69;5011616;28;830;-58
2022/04/04 06:28:59;;;;;;;;;;;;;;;17.05;43.69;101324.06;4990065;28;1106;-58
2022/04/04 06:31:25;;;;;;;;;;;;;;;17.05;43.97;101315.03;4997130;28;807;-57
2022/04/04 06:33:50;;;;;;;;;;;;;;;17.08;44.12;101314.50;4996863;28;1906;-58
2022/04/04 06:36:16;;;;;;;;;;;;;;;17.10;43.93;101307.66;4994944;28;792;-57
2022/04/04 06:38:42;;;;;;;;;;;;;;;17.18;44.08;101313.72;4997193;28;1076;-58
2022/04/04 06:41:08;;;;;;;;;;;;;;;17.11;44.21;101322.22;4997209;28;870;-57
2022/04/04 06:43:33;;;;;;;;;;;;;;;17.08;44.00;101331.81;4997316;28;791;-57
2022/04/04 06:46:00;;;;;;;;;;;;;;;17.08;44.24;101328.22;4997356;28;826;-58
2022/04/04 06:48:25;;;;;;;;;;;;;;;17.07;44.14;101332.09;4991007;28;1094;-57
2022/04/04 06:50:51;;;;;;;;;;;;;;;16.99;44.07;101316.91;4995764;28;1236;-57
2022/04/04 06:53:16;;;;;;;;;;;;;;;17.02;43.94;101324.63;4996660;28;1882;-57
2022/04/04 06:55:44;;;;;;;;;;;;;;;16.99;44.02;101318.84;4996747;28;1213;-58
2022/04/04 06:58:09;;;;;;;;;;;;;;;17.03;44.00;101315.28;4997208;28;1153;-57
2022/04/04 07:00:35;;;;;;;;;;;;;;;17.12;44.13;101296.38;4994140;28;995;-57
2022/04/04 07:03:01;;;;;;;;;;;;;;;17.28;43.78;101303.63;4997260;28;835;-56
2022/04/04 07:05:27;;;;;;;;;;;;;;;17.84;43.04;101304.19;4996872;28;832;-57
2022/04/04 07:07:52;;;;;;;;;;;;;;;18.15;42.57;101304.34;4997250;28;827;-57
2022/04/04 07:10:18;;;;;;;;;;;;;;;18.37;42.14;101309.59;5008300;28;910;-57
2022/04/04 07:12:43;;;;;;;;;;;;;;;18.62;42.03;101326.16;5015528;28;847;-56
2022/04/04 07:15:10;;;;;;;;;;;;;;;18.79;41.79;101334.16;5015624;28;1969;-57
2022/04/04 07:17:36;;;;;;;;;;;;;;;18.60;42.08;101333.84;5011175;28;810;-57
2022/04/04 07:20:01;;;;;;;;;;;;;;;18.02;42.47;101339.53;4996812;28;939;-56
2022/04/04 07:22:33;;;;;;;;;;;;;;;17.60;42.30;101343.97;4997319;28;865;-57
2022/04/04 07:24:58;;;;;;;;;;;;;;;17.27;41.46;101340.47;4996953;28;790;-56
2022/04/04 07:27:23;;;;;;;;;;;;;;;17.11;41.32;101349.72;4996622;28;884;-56
2022/04/04 07:29:49;;;;;;;;;;;;;;;16.96;41.06;101350.41;4996758;28;802;-56
2022/04/04 07:32:14;;;;;;;;;;;;;;;16.80;40.59;101357.63;4996796;28;755;-56
2022/04/04 07:34:40;;;;;;;;;;;;;;;16.71;40.14;101368.28;4998237;28;1980;-58
2022/04/04 07:37:05;;;;;;;;;;;;;;;16.57;40.19;101358.81;4997872;28;767;-57
2022/04/04 07:39:31;;;;;;;;;;;;;;;16.61;40.69;101370.94;5002785;28;1078;-59
2022/04/04 07:41:57;;;;;;;;;;;;;;;16.75;42.10;101377.66;5019172;28;1057;-57
2022/04/04 07:44:22;;;;;;;;;;;;;;;16.84;42.99;101371.69;5003916;28;1199;-57
2022/04/04 07:46:48;;;;;;;;;;;;;;;17.02;43.67;101381.50;5000415;28;843;-57
2022/04/04 07:49:13;;;;;;;;;;;;;;;17.09;44.30;101371.09;5000098;28;1012;-57
2022/04/04 07:51:39;;;;;;;;;;;;;;;17.18;44.67;101377.78;5000611;28;825;-58
2022/04/04 07:54:04;;;;;;;;;;;;;;;17.28;44.60;101380.59;5000460;28;1910;-56
2022/04/04 07:56:30;;;;;;;;;;;;;;;17.30;44.77;101380.34;5008612;28;823;-59
2022/04/04 07:58:56;;;;;;;;;;;;;;;17.39;44.94;101392.50;5000046;28;909;-59
2022/04/04 08:01:21;;;;;;;;;;;;;;;17.43;44.73;101393.63;5000068;28;843;-58
2022/04/04 08:03:47;;;;;;;;;;;;;;;17.44;44.84;101391.69;4999883;28;822;-59
2022/04/04 08:06:12;;;;;;;;;;;;;;;17.53;44.79;101389.28;4999748;28;835;-58
2022/04/04 08:08:38;;;;;;;;;;;;;;;17.62;44.50;101390.44;4999569;28;812;-59
2022/04/04 08:11:04;;;;;;;;;;;;;;;17.71;44.19;101396.28;5018517;28;849;-56
2022/04/04 08:13:30;;;;;;;;;;;;;;;17.70;44.14;101395.44;5018641;28;1914;-56
2022/04/04 08:15:56;;;;;;;;;;;;;;;17.77;43.94;101390.53;5018539;28;758;-55
2022/04/04 08:18:22;;;;;;;;;;;;;;;17.90;43.43;101399.41;5018653;28;957;-57
2022/04/04 08:20:48;;;;;;;;;;;;;;;17.84;43.73;101398.56;5016709;28;783;-57
2022/04/04 08:23:13;;;;;;;;;;;;;;;17.90;43.55;101402.97;5016960;28;762;-56
2022/04/04 08:25:40;;;;;;;;;;;;;;;17.88;43.46;101394.19;5001508;28;836;-57
2022/04/04 08:28:06;;;;;;;;;;;;;;;17.88;43.53;101393.34;4999511;28;863;-58
2022/04/04 08:30:32;;;;;;;;;;;;;;;17.88;43.51;101394.19;4999882;28;916;-59
2022/04/04 08:32:58;;;;;;;;;;;;;;;17.94;43.51;101393.13;5000317;28;783;-59
2022/04/04 08:35:23;;;;;;;;;;;;;;;17.89;43.32;101378.50;5008461;28;1983;-59
2022/04/04 08:37:48;;;;;;;;;;;;;;;17.91;43.32;101387.34;5018243;28;1136;-59
2022/04/04 08:40:14;;;;;;;;;;;;;;;17.92;43.28;101380.72;5013782;28;1395;-59
2022/04/04 08:42:40;;;;;;;;;;;;;;;18.06;43.09;101398.44;5018039;28;800;-59
2022/04/04 08:45:06;;;;;;;;;;;;;;;17.97;43.05;101380.75;5016824;28;778;-58
2022/04/04 08:47:32;;;;;;;;;;;;;;;17.79;43.30;101374.59;5006932;28;843;-57
2022/04/04 08:49:58;;;;;;;;;;;;;;;17.48;42.98;101384.59;4998983;28;779;-57
2022/04/04 08:52:24;;;;;;;;;;;;;;;17.22;42.60;101375.31;4999404;28;712;-57
2022/04/04 08:54:49;;;;;;;;;;;;;;;17.04;41.85;101385.63;4995214;28;1914;-57
2022/04/04 08:57:15;;;;;;;;;;;;;;;17.00;41.45;101380.91;4998608;28;757;-57
2022/04/04 08:59:41;;;;;;;;;;;;;;;16.72;40.64;101380.09;4999220;28;772;-57
2022/04/04 09:02:06;;;;;;;;;;;;;;;16.62;40.20;101377.25;4998951;28;877;-57
2022/04/04 09:04:33;;;;;;;;;;;;;;;16.47;40.04;101380.69;4998893;28;806;-57
2022/04/04 09:07:03;;;;;;;;;;;;;;;16.55;40.67;101374.69;4999118;28;818;-57
2022/04/04 09:09:42;;;;;;;;;;;;;;;16.66;41.78;101376.47;5005123;28;928;-57
2022/04/04 09:12:08;;;;;;;;;;;;;;;16.81;42.84;101383.19;5010718;28;775;-57
2022/04/04 09:14:43;;;;;;;;;;;;;;;16.95;43.56;101381.72;5017702;28;1914;-57
2022/04/04 09:17:10;;;;;;;;;;;;;;;17.05;43.68;101365.28;5017141;28;843;-56
2022/04/04 09:19:35;;;;;;;;;;;;;;;17.07;44.03;101373.31;5017225;28;880;-55
2022/04/04 09:22:05;;;;;;;;;;;;;;;17.16;44.10;101365.41;5017294;28;839;-55
2022/04/04 09:24:49;;;;;;;;;;;;;;;17.14;44.17;101359.31;5009487;28;819;-56
2022/04/04 09:27:18;;;;;;;;;;;;;;;17.13;44.50;101365.94;5015371;28;738;-55
2022/04/04 09:29:43;;;;;;;;;;;;;;;17.33;44.47;101366.06;5017738;28;952;-55
2022/04/04 09:32:11;;;;;;;;;;;;;;;17.57;44.12;101360.16;5017077;28;967;-58
2022/04/04 09:34:49;;;;;;;;;;;;;;;18.10;43.22;101357.41;5017168;28;1921;-59
2022/04/04 09:37:15;;;;;;;;;;;;;;;18.53;42.37;101357.28;5015204;28;902;-58
2022/04/04 09:39:40;;;;;;;;;;;;;;;18.78;41.65;101350.97;5012745;28;1173;-57
2022/04/04 09:42:13;;;;;;;;;;;;;;;18.43;41.93;101341.56;4989384;28;979;-57
2022/04/04 09:44:39;;;;;;;;;;;;;;;17.86;42.47;101338.59;4999647;28;835;-56
2022/04/04 09:47:04;;;;;;;;;;;;;;;17.53;41.87;101331.53;5016682;28;822;-56
2022/04/04 09:49:30;;;;;;;;;;;;;;;17.16;41.37;101335.16;4999628;28;775;-57
2022/04/04 09:51:56;;;;;;;;;;;;;;;17.00;40.87;101332.31;4994163;28;1335;-57
2022/04/04 09:54:26;;;;;;;;;;;;;;;16.80;40.29;101323.84;5009962;28;1961;-56
2022/04/04 09:57:10;;;;;;;;;;;;;;;16.67;40.03;101325.94;4997429;28;905;-57
2022/04/04 09:59:36;;;;;;;;;;;;;;;16.60;40.66;101319.84;4998003;28;800;-57
2022/04/04 10:02:02;;;;;;;;;;;;;;;16.67;41.61;101309.47;4998368;28;844;-56
2022/04/04 10:04:28;;;;;;;;;;;;;;;16.84;42.65;101303.84;4979291;28;1016;-56
2022/04/04 10:06:53;;;;;;;;;;;;;;;16.96;43.01;101311.09;4980876;28;936;-56
2022/04/04 10:09:19;;;;;;;;;;;;;;;17.04;43.70;101303.22;4981014;28;890;-57
2022/04/04 10:11:44;;;;;;;;;;;;;;;17.33;44.58;101308.34;4998759;28;871;-53
2022/04/04 10:14:10;;;;;;;;;;;;;;;17.83;44.40;101302.53;5016761;28;1918;-54
2022/04/04 10:16:35;;;;;;;;;;;;;;;18.23;43.35;101295.53;5005877;28;832;-54
2022/04/04 10:19:01;;;;;;;;;;;;;;;18.52;42.78;101292.28;4979319;28;889;-55
2022/04/04 10:21:26;;;;;;;;;;;;;;;18.68;42.50;101293.94;4997548;28;843;-54
2022/04/04 10:23:53;;;;;;;;;;;;;;;18.49;42.40;101288.13;4997137;28;874;-55
2022/04/04 10:26:19;;;;;;;;;;;;;;;18.05;43.10;101283.13;4980595;28;863;-55
2022/04/04 10:28:46;;;;;;;;;;;;;;;17.57;42.49;101267.50;5001859;28;921;-55
2022/04/04 10:31:12;;;;;;;;;;;;;;;17.36;41.59;101269.34;4999176;28;916;-55
2022/04/04 10:33:38;;;;;;;;;;;;;;;17.08;41.02;101276.88;5016029;28;1917;-55
2022/04/04 10:36:10;;;;;;;;;;;;;;;17.04;41.14;101274.88;5016044;28;824;-55
2022/04/04 10:38:37;;;;;;;;;;;;;;;16.74;40.11;101276.31;5014851;28;974;-53
2022/04/04 10:41:05;;;;;;;;;;;;;;;16.53;39.46;101264.31;5012024;28;811;-54
2022/04/04 10:43:31;;;;;;;;;;;;;;;16.46;39.15;101274.69;4997654;28;759;-54
2022/04/04 10:45:58;;;;;;;;;;;;;;;16.43;39.65;101276.84;4997145;28;925;-54
2022/04/04 10:48:35;;;;;;;;;;;;;;;16.58;40.95;101275.34;4997032;28;751;-54
2022/04/04 10:51:12;;;;;;;;;;;;;;;16.94;43.45;101264.66;4997372;28;837;-54
2022/04/04 10:53:43;;;;;;;;;;;;;;;17.37;44.52;101272.91;4996620;28;1914;-55
2022/04/04 10:56:10;;;;;;;;;;;;;;;17.65;44.67;101255.16;5015889;28;791;-55
2022/04/04 10:58:35;;;;;;;;;;;;;;;18.08;43.89;101261.38;5016502;28;810;-54
2022/04/04 11:01:09;;;;;;;;;;;;;;;18.30;43.25;101258.38;5015975;28;789;-54
2022/04/04 11:03:35;;;;;;;;;;;;;;;18.60;42.55;101255.91;5015747;28;889;-52
2022/04/04 11:09:15;;;;;;;;;;;;;;;17.74;43.07;101255.44;5008250;28;869;-54
2022/04/04 11:11:50;;;;;;;;;;;;;;;17.19;41.46;101241.19;4995302;28;895;-54
2022/04/04 11:14:42;;;;;;;;;;;;;;;16.91;40.73;101241.31;5001396;28;1956;-54
2022/04/04 11:17:17;;;;;;;;;;;;;;;16.67;39.90;101229.84;4992101;28;1431;-54
2022/04/04 11:20:00;;;;;;;;;;;;;;;16.62;39.79;101257.28;4980822;28;1513;-54
2022/04/04 11:22:55;;;;;;;;;;;;;;;16.63;39.96;101253.41;4967343;28;1178;-54
2022/04/04 11:25:21;;;;;;;;;;;;;;;16.81;41.98;101237.63;5011230;28;1011;-55
2022/04/04 11:27:48;;;;;;;;;;;;;;;17.12;44.12;101238.69;5019655;28;1450;-54
2022/04/04 11:30:17;;;;;;;;;;;;;;;17.70;44.90;101235.94;5019471;28;806;-53
2022/04/04 11:32:43;;;;;;;;;;;;;;;17.81;44.64;101228.53;5015787;28;830;-54
2022/04/04 11:35:12;;;;;;;;;;;;;;;17.70;44.69;101216.69;5005428;28;1984;-54
2022/04/04 11:37:48;;;;;;;;;;;;;;;17.55;44.67;101219.38;5000360;28;1171;-53
2022/04/04 11:40:25;;;;;;;;;;;;;;;17.50;44.78;101217.44;5012045;28;771;-55
2022/04/04 11:42:51;;;;;;;;;;;;;;;17.51;44.47;101215.50;5019299;28;861;-55
2022/04/04 11:45:17;;;;;;;;;;;;;;;17.45;44.55;101214.66;5012757;28;743;-54
2022/04/04 11:47:49;;;;;;;;;;;;;;;17.40;44.59;101211.88;4993775;28;765;-53
2022/04/04 11:50:14;;;;;;;;;;;;;;;17.37;44.80;101206.94;5000244;28;911;-55
2022/04/04 11:52:46;;;;;;;;;;;;;;;17.36;44.75;101211.63;5000821;28;763;-55
2022/04/04 11:55:16;;;;;;;;;;;;;;;17.41;44.52;101214.38;4995849;28;1978;-56
2022/04/04 11:57:46;;;;;;;;;;;;;;;17.38;44.33;101214.91;5000494;28;846;-54
2022/04/04 12:00:12;;;;;;;;;;;;;;;17.44;44.21;101202.00;5019526;28;770;-54
2022/04/04 12:02:38;;;;;;;;;;;;;;;17.40;44.41;101196.22;5000954;28;838;-53
2022/04/04 12:05:06;;;;;;;;;;;;;;;17.32;44.16;101194.00;5018694;28;735;-54
2022/04/04 12:07:33;;;;;;;;;;;;;;;17.37;44.13;101187.69;5019143;28;830;-54
2022/04/04 12:10:01;;;;;;;;;;;;;;;17.38;44.32;101198.41;5006224;28;951;-54
2022/04/04 12:12:31;;;;;;;;;;;;;;;17.36;44.18;101200.63;4989095;28;1379;-54
2022/04/04 12:14:56;;;;;;;;;;;;;;;17.40;44.30;101211.88;5000203;28;1975;-55
2022/04/04 12:17:23;;;;;;;;;;;;;;;17.39;43.99;101191.81;4999617;28;825;-56
2022/04/04 12:19:50;;;;;;;;;;;;;;;17.39;44.21;101190.97;4999587;28;870;-55
2022/04/04 12:25:00;;;;;;;;;;;;;;;17.38;43.96;101187.41;5002635;28;846;-55
2022/04/04 12:27:26;;;;;;;;;;;;;;;17.45;43.88;101181.69;4999571;28;791;-55
2022/04/04 12:29:56;;;;;;;;;;;;;;;17.42;44.02;101177.53;4999866;28;976;-55
2022/04/04 12:32:22;;;;;;;;;;;;;;;17.26;44.28;101170.31;4999345;28;834;-55
2022/04/04 12:34:55;;;;;;;;;;;;;;;17.21;44.08;101171.13;4999692;28;1973;-55
2022/04/04 12:37:31;;;;;;;;;;;;;;;17.19;43.94;101169.75;4998894;28;1224;-54
2022/04/04 12:40:11;;;;;;;;;;;;;;;17.10;43.75;101175.75;5003098;28;766;-55
2022/04/04 12:42:36;;;;;;;;;;;;;;;17.10;43.68;101174.94;5018470;28;733;-56
2022/04/04 12:45:02;;;;;;;;;;;;;;;17.06;43.88;101169.13;5018181;28;797;-55
2022/04/04 12:47:27;;;;;;;;;;;;;;;17.03;43.49;101164.19;5017702;28;906;-54
2022/04/04 12:50:11;;;;;;;;;;;;;;;17.04;43.64;101165.00;5010123;28;947;-54
2022/04/04 12:52:54;;;;;;;;;;;;;;;16.96;44.01;101149.88;4999387;28;1248;-55
2022/04/04 12:55:19;;;;;;;;;;;;;;;16.99;43.39;101141.09;5004750;28;1973;-54
2022/04/04 12:57:45;;;;;;;;;;;;;;;16.94;43.61;101135.56;5009223;28;1097;-54
2022/04/04 13:00:11;;;;;;;;;;;;;;;16.88;43.49;101136.59;4999094;28;895;-55
2022/04/04 13:02:37;;;;;;;;;;;;;;;16.92;43.40;101135.00;4998651;28;795;-55